createdAt,value
2023-05-06T00:02:24.547Z,989.4
2023-05-06T00:07:43.551Z,989.4
2023-05-06T00:18:22.608Z,989.4
2023-05-06T00:23:41.412Z,989.3
2023-05-06T00:34:20.382Z,989.3
2023-05-06T00:44:58.718Z,989.1
2023-05-06T00:50:17.982Z,989.1
2023-05-06T01:00:56.525Z,989.1
2023-05-06T01:06:16.124Z,989.1
2023-05-06T01:16:54.543Z,989.1
2023-05-06T01:22:13.302Z,989.1
2023-05-06T01:32:51.579Z,989.1
2023-05-06T01:43:30.511Z,989.1
2023-05-06T01:48:49.427Z,989.2
2023-05-06T01:59:27.977Z,989.2
2023-05-06T02:04:46.621Z,989.2
2023-05-06T02:15:25.269Z,989.2
2023-05-06T02:20:44.647Z,989.1
2023-05-06T02:31:23.663Z,989.2
2023-05-06T02:42:02.456Z,989.1
2023-05-06T02:47:21.647Z,989.1
2023-05-06T02:58:00.061Z,989
2023-05-06T03:03:18.878Z,989
2023-05-06T03:13:58.038Z,989
2023-05-06T03:24:36.710Z,989.1
2023-05-06T03:29:56.418Z,989.1
2023-05-06T03:40:35.498Z,989.1
2023-05-06T03:45:54.851Z,989.2
2023-05-06T03:56:33.050Z,989.2
2023-05-06T04:01:51.974Z,989.2
2023-05-06T04:07:11.637Z,989.2
2023-05-06T04:12:30.788Z,989.3
2023-05-06T04:23:09.287Z,989.4
2023-05-06T04:28:28.154Z,989.4
2023-05-06T04:33:47.522Z,989.4
2023-05-06T04:44:25.520Z,989.5
2023-05-06T04:49:45.818Z,989.5
2023-05-06T05:00:23.556Z,989.7
2023-05-06T05:05:42.950Z,989.7
2023-05-06T05:16:21.325Z,989.8
2023-05-06T05:26:59.638Z,989.8
2023-05-06T05:32:19.156Z,989.9
2023-05-06T05:42:57.205Z,990
2023-05-06T05:48:16.171Z,990
2023-05-06T05:58:54.369Z,989.9
2023-05-06T06:14:52.207Z,990
2023-05-06T06:25:31.012Z,990
2023-05-06T06:30:50.090Z,990
2023-05-06T06:41:29.029Z,989.9
2023-05-06T06:46:48.487Z,990
2023-05-06T06:57:26.106Z,990
2023-05-06T07:13:24.084Z,990.1
2023-05-06T07:24:01.347Z,990
2023-05-06T07:29:20.915Z,990
2023-05-06T07:39:59.753Z,990.1
2023-05-06T07:45:19.277Z,990.1
2023-05-06T07:55:58.071Z,990.2
2023-05-06T08:06:36.397Z,990.3
2023-05-06T08:11:55.906Z,990.3
2023-05-06T08:22:34.150Z,990.4
2023-05-06T08:27:53.572Z,990.4
2023-05-06T08:38:31.277Z,990.4
2023-05-06T08:54:28.272Z,990.3
2023-05-06T09:05:06.918Z,990.3
2023-05-06T09:10:26.153Z,990.3
2023-05-06T09:21:05.078Z,990.2
2023-05-06T09:26:33.207Z,990.3
2023-05-06T09:37:03.044Z,990.3
2023-05-06T09:47:41.389Z,990.1
2023-05-06T09:53:00.222Z,990
2023-05-06T10:03:39.125Z,990.1
2023-05-06T10:08:58.409Z,990
2023-05-06T10:19:36.918Z,990
2023-05-06T10:25:20.197Z,989.9
2023-05-06T10:35:58.932Z,989.8
2023-05-06T10:41:18.058Z,989.8
2023-05-06T10:46:36.739Z,989.7
2023-05-06T10:51:56.397Z,989.7
2023-05-06T11:02:35.315Z,989.6
2023-05-06T11:07:53.978Z,989.6
2023-05-06T11:18:32.971Z,989.5
2023-05-06T11:29:10.808Z,989.6
2023-05-06T11:34:29.595Z,989.6
2023-05-06T11:39:48.984Z,989.6
2023-05-06T11:45:08.379Z,989.6
2023-05-06T11:55:46.706Z,989.6
2023-05-06T12:01:05.835Z,989.6
2023-05-06T12:11:45.024Z,989.6
2023-05-06T12:17:03.080Z,989.5
2023-05-06T12:27:41.236Z,989.5
2023-05-06T12:38:20.424Z,989.5
2023-05-06T12:43:39.745Z,989.5
2023-05-06T12:54:17.539Z,989.5
2023-05-06T12:59:36.091Z,989.5
2023-05-06T13:10:14.048Z,989.4
2023-05-06T13:20:52.414Z,989.4
2023-05-06T13:26:11.949Z,989.4
2023-05-06T13:36:50.840Z,989.3
2023-05-06T13:42:10.194Z,989.3
2023-05-06T13:52:48.429Z,989.1
2023-05-06T13:58:07.984Z,989
2023-05-06T14:08:45.668Z,989
2023-05-06T14:19:23.740Z,988.8
2023-05-06T14:24:42.858Z,988.8
2023-05-06T14:35:21.447Z,988.7
2023-05-06T14:40:40.570Z,988.6
2023-05-06T14:46:00.134Z,988.6
2023-05-06T14:51:18.942Z,988.5
2023-05-06T15:01:57.444Z,988.5
2023-05-06T15:07:17.011Z,988.4
2023-05-06T15:17:55.000Z,988.5
2023-05-06T15:23:14.180Z,988.5
2023-05-06T15:33:53.080Z,988.6
2023-05-06T15:39:12.583Z,988.6
2023-05-06T15:44:31.936Z,988.6
2023-05-06T15:49:54.277Z,988.6
2023-05-06T16:00:28.273Z,988.5
2023-05-06T16:05:47.793Z,988.5
2023-05-06T16:16:26.662Z,988.5
2023-05-06T16:21:46.051Z,988.4
2023-05-06T16:27:04.831Z,988.4
2023-05-06T16:32:24.337Z,988.4
2023-05-06T16:43:01.962Z,988.4
2023-05-06T16:48:21.072Z,988.4
2023-05-06T16:58:58.946Z,988.4
2023-05-06T17:04:18.341Z,988.4
2023-05-06T17:14:55.984Z,988.3
2023-05-06T17:25:33.628Z,988.2
2023-05-06T17:30:53.206Z,988.2
2023-05-06T17:41:31.502Z,988.2
2023-05-06T17:46:51.031Z,988.2
2023-05-06T17:57:39.208Z,988.1
2023-05-06T18:08:06.872Z,988.2
2023-05-06T18:18:44.586Z,988.2
2023-05-06T18:24:15.151Z,988.2
2023-05-06T18:34:42.476Z,988.2
2023-05-06T18:50:40.126Z,988.3
2023-05-06T19:01:17.689Z,988.4
2023-05-06T19:06:36.540Z,988.4
2023-05-06T19:17:14.995Z,988.4
2023-05-06T19:22:34.338Z,988.5
2023-05-06T19:27:53.512Z,988.6
2023-05-06T19:33:22.772Z,988.6
2023-05-06T19:43:51.259Z,988.8
2023-05-06T19:49:10.920Z,988.8
2023-05-06T19:59:49.587Z,988.9
2023-05-06T20:05:08.815Z,988.9
2023-05-06T20:10:27.708Z,988.9
2023-05-06T20:15:47.130Z,988.9
2023-05-06T20:26:25.123Z,988.8
2023-05-06T20:31:44.296Z,988.8
2023-05-06T20:42:21.985Z,988.9
2023-05-06T20:47:41.688Z,988.9
2023-05-06T20:58:19.206Z,988.9
2023-05-06T21:14:16.204Z,988.9
2023-05-06T21:24:54.718Z,989
2023-05-06T21:30:13.672Z,989
2023-05-06T21:40:52.974Z,989
2023-05-06T21:46:12.129Z,988.9
2023-05-06T21:56:50.649Z,988.9
2023-05-06T22:07:29.321Z,988.9
2023-05-06T22:12:48.624Z,989
2023-05-06T22:23:27.856Z,989
2023-05-06T22:28:47.133Z,989
2023-05-06T22:39:25.202Z,989
2023-05-06T22:50:12.505Z,989
2023-05-06T22:55:22.533Z,989
2023-05-06T23:06:00.495Z,989
2023-05-06T23:11:19.219Z,988.9
2023-05-06T23:21:57.431Z,988.9
2023-05-06T23:37:55.061Z,988.9
2023-05-06T23:48:34.125Z,988.9
2023-05-06T23:53:53.690Z,988.8
